sensor_id;sensor_type;location;lat;lon;timestamp;P1;P2;P0
69349;PMS5003;64554;43.452;4.934;2023-05-15T00:00:16;7.50;7.50;5.00
69349;PMS5003;64554;43.452;4.934;2023-05-15T00:02:43;7.00;7.00;5.00
69349;PMS5003;64554;43.452;4.934;2023-05-15T00:05:10;8.00;7.00;5.00
69349;PMS5003;64554;43.452;4.934;2023-05-15T00:07:38;9.80;8.80;5.80
69349;PMS5003;64554;43.452;4.934;2023-05-15T00:10:06;8.00;8.00;6.00
69349;PMS5003;64554;43.452;4.934;2023-05-15T00:12:32;6.60;6.60;5.60
69349;PMS5003;64554;43.452;4.934;2023-05-15T00:14:59;7.00;7.00;6.00
69349;PMS5003;64554;43.452;4.934;2023-05-15T00:17:25;7.20;7.20;6.00
69349;PMS5003;64554;43.452;4.934;2023-05-15T00:19:52;8.00;8.00;6.00
69349;PMS5003;64554;43.452;4.934;2023-05-15T00:22:22;9.80;8.00;6.00
69349;PMS5003;64554;43.452;4.934;2023-05-15T00:24:49;8.00;8.00;5.00
69349;PMS5003;64554;43.452;4.934;2023-05-15T00:27:15;9.00;9.00;6.00
69349;PMS5003;64554;43.452;4.934;2023-05-15T00:29:42;11.00;11.00;5.80
69349;PMS5003;64554;43.452;4.934;2023-05-15T00:32:08;7.00;7.00;5.20
69349;PMS5003;64554;43.452;4.934;2023-05-15T00:34:35;8.00;8.00;5.60
69349;PMS5003;64554;43.452;4.934;2023-05-15T00:37:02;12.20;11.60;8.60
69349;PMS5003;64554;43.452;4.934;2023-05-15T00:39:28;9.00;9.00;7.25
69349;PMS5003;64554;43.452;4.934;2023-05-15T00:41:55;8.00;8.00;6.00
69349;PMS5003;64554;43.452;4.934;2023-05-15T00:44:22;8.50;7.50;5.50
69349;PMS5003;64554;43.452;4.934;2023-05-15T00:46:49;11.00;9.50;7.00
69349;PMS5003;64554;43.452;4.934;2023-05-15T00:49:17;8.80;8.80;7.20
69349;PMS5003;64554;43.452;4.934;2023-05-15T00:51:43;11.20;10.20;6.40
69349;PMS5003;64554;43.452;4.934;2023-05-15T00:54:10;10.00;10.00;7.00
69349;PMS5003;64554;43.452;4.934;2023-05-15T00:56:37;10.60;10.40;7.00
69349;PMS5003;64554;43.452;4.934;2023-05-15T00:59:04;8.60;8.60;7.00
69349;PMS5003;64554;43.452;4.934;2023-05-15T01:01:31;9.00;9.00;5.25
69349;PMS5003;64554;43.452;4.934;2023-05-15T01:04:02;9.00;9.00;6.75
69349;PMS5003;64554;43.452;4.934;2023-05-15T01:06:30;8.00;8.00;7.00
69349;PMS5003;64554;43.452;4.934;2023-05-15T01:08:58;9.20;9.20;6.20
69349;PMS5003;64554;43.452;4.934;2023-05-15T01:11:27;12.00;12.00;6.00
69349;PMS5003;64554;43.452;4.934;2023-05-15T01:14:04;9.00;9.00;6.00
69349;PMS5003;64554;43.452;4.934;2023-05-15T01:16:31;9.40;9.40;7.00
69349;PMS5003;64554;43.452;4.934;2023-05-15T01:18:58;10.00;10.00;8.00
69349;PMS5003;64554;43.452;4.934;2023-05-15T01:32:23;13.00;13.00;9.00
69349;PMS5003;64554;43.452;4.934;2023-05-15T01:37:18;9.00;8.00;6.40
69349;PMS5003;64554;43.452;4.934;2023-05-15T01:39:47;12.00;12.00;8.00
69349;PMS5003;64554;43.452;4.934;2023-05-15T01:42:15;9.75;9.75;6.75
69349;PMS5003;64554;43.452;4.934;2023-05-15T01:44:50;12.50;12.50;8.00
69349;PMS5003;64554;43.452;4.934;2023-05-15T01:47:19;9.60;9.60;7.60
69349;PMS5003;64554;43.452;4.934;2023-05-15T01:49:46;10.00;10.00;8.00
69349;PMS5003;64554;43.452;4.934;2023-05-15T01:52:15;11.50;10.50;6.25
69349;PMS5003;64554;43.452;4.934;2023-05-15T01:54:44;9.40;9.40;6.80
69349;PMS5003;64554;43.452;4.934;2023-05-15T01:57:11;11.25;10.25;7.25
69349;PMS5003;64554;43.452;4.934;2023-05-15T01:59:39;9.25;9.25;7.00
69349;PMS5003;64554;43.452;4.934;2023-05-15T02:02:06;13.00;13.00;8.00
69349;PMS5003;64554;43.452;4.934;2023-05-15T02:04:34;8.00;8.00;6.00
69349;PMS5003;64554;43.452;4.934;2023-05-15T02:07:02;11.00;11.00;8.67
69349;PMS5003;64554;43.452;4.934;2023-05-15T02:09:30;11.00;11.00;8.00
69349;PMS5003;64554;43.452;4.934;2023-05-15T02:11:57;11.00;11.00;7.00
69349;PMS5003;64554;43.452;4.934;2023-05-15T02:14:25;11.67;11.67;8.67
69349;PMS5003;64554;43.452;4.934;2023-05-15T02:16:53;12.60;12.60;8.60
69349;PMS5003;64554;43.452;4.934;2023-05-15T02:19:20;15.50;15.50;10.00
69349;PMS5003;64554;43.452;4.934;2023-05-15T02:21:47;12.60;12.00;9.00
69349;PMS5003;64554;43.452;4.934;2023-05-15T02:24:13;11.40;8.60;7.20
69349;PMS5003;64554;43.452;4.934;2023-05-15T02:29:19;14.00;14.00;9.60
69349;PMS5003;64554;43.452;4.934;2023-05-15T02:32:49;13.33;13.00;9.67
69349;PMS5003;64554;43.452;4.934;2023-05-15T02:37:26;12.80;12.80;8.20
69349;PMS5003;64554;43.452;4.934;2023-05-15T02:39:55;13.00;12.60;7.40
69349;PMS5003;64554;43.452;4.934;2023-05-15T02:42:25;10.25;10.25;6.75
69349;PMS5003;64554;43.452;4.934;2023-05-15T02:44:52;12.60;11.60;7.60
69349;PMS5003;64554;43.452;4.934;2023-05-15T02:47:19;13.20;13.20;9.00
69349;PMS5003;64554;43.452;4.934;2023-05-15T02:49:46;12.00;12.00;8.50
69349;PMS5003;64554;43.452;4.934;2023-05-15T02:52:13;14.60;13.00;10.00
69349;PMS5003;64554;43.452;4.934;2023-05-15T02:54:40;12.00;10.60;8.00
69349;PMS5003;64554;43.452;4.934;2023-05-15T02:57:06;15.00;15.00;10.00
69349;PMS5003;64554;43.452;4.934;2023-05-15T02:59:33;12.25;12.25;9.00
69349;PMS5003;64554;43.452;4.934;2023-05-15T03:02:00;15.00;15.00;11.00
69349;PMS5003;64554;43.452;4.934;2023-05-15T03:04:28;16.60;13.60;9.60
69349;PMS5003;64554;43.452;4.934;2023-05-15T03:06:55;15.80;15.80;10.80
69349;PMS5003;64554;43.452;4.934;2023-05-15T03:09:21;17.20;15.00;10.00
69349;PMS5003;64554;43.452;4.934;2023-05-15T03:11:48;15.50;15.50;10.00
69349;PMS5003;64554;43.452;4.934;2023-05-15T03:14:14;16.40;15.40;10.80
69349;PMS5003;64554;43.452;4.934;2023-05-15T03:16:41;12.75;12.75;9.00
69349;PMS5003;64554;43.452;4.934;2023-05-15T03:19:07;15.00;13.00;10.00
69349;PMS5003;64554;43.452;4.934;2023-05-15T03:21:34;15.00;15.00;11.00
69349;PMS5003;64554;43.452;4.934;2023-05-15T03:24:00;14.60;13.00;9.00
69349;PMS5003;64554;43.452;4.934;2023-05-15T03:26:27;14.50;14.50;10.00
69349;PMS5003;64554;43.452;4.934;2023-05-15T03:28:53;13.60;13.60;10.60
69349;PMS5003;64554;43.452;4.934;2023-05-15T03:31:20;17.00;13.60;10.00
69349;PMS5003;64554;43.452;4.934;2023-05-15T03:33:46;15.50;15.50;11.50
69349;PMS5003;64554;43.452;4.934;2023-05-15T03:36:15;15.00;14.00;10.60
69349;PMS5003;64554;43.452;4.934;2023-05-15T03:38:41;16.40;15.40;10.60
69349;PMS5003;64554;43.452;4.934;2023-05-15T03:41:09;16.00;13.00;9.00
69349;PMS5003;64554;43.452;4.934;2023-05-15T03:43:36;20.80;20.80;11.00
69349;PMS5003;64554;43.452;4.934;2023-05-15T03:46:03;20.80;18.80;11.40
69349;PMS5003;64554;43.452;4.934;2023-05-15T03:48:30;14.75;14.75;11.50
69349;PMS5003;64554;43.452;4.934;2023-05-15T03:50:56;14.00;14.00;9.50
69349;PMS5003;64554;43.452;4.934;2023-05-15T03:53:23;16.40;16.40;11.60
69349;PMS5003;64554;43.452;4.934;2023-05-15T03:55:50;20.60;20.60;11.00
69349;PMS5003;64554;43.452;4.934;2023-05-15T03:58:16;16.00;16.00;11.00
69349;PMS5003;64554;43.452;4.934;2023-05-15T04:00:42;17.00;15.40;12.40
69349;PMS5003;64554;43.452;4.934;2023-05-15T04:03:09;14.50;13.50;10.50
69349;PMS5003;64554;43.452;4.934;2023-05-15T04:05:36;21.75;21.00;12.50
69349;PMS5003;64554;43.452;4.934;2023-05-15T04:08:03;18.00;15.00;12.00
69349;PMS5003;64554;43.452;4.934;2023-05-15T04:10:29;17.50;17.50;13.50
69349;PMS5003;64554;43.452;4.934;2023-05-15T04:12:57;17.80;15.80;12.00
69349;PMS5003;64554;43.452;4.934;2023-05-15T04:15:24;13.80;13.00;9.00
69349;PMS5003;64554;43.452;4.934;2023-05-15T04:17:52;16.00;14.00;10.00
69349;PMS5003;64554;43.452;4.934;2023-05-15T04:20:20;18.00;18.00;13.00
69349;PMS5003;64554;43.452;4.934;2023-05-15T04:22:46;21.25;21.00;12.00
69349;PMS5003;64554;43.452;4.934;2023-05-15T04:25:13;16.25;16.25;13.25
69349;PMS5003;64554;43.452;4.934;2023-05-15T04:27:41;18.60;17.60;13.00
69349;PMS5003;64554;43.452;4.934;2023-05-15T04:30:09;15.75;15.75;11.75
69349;PMS5003;64554;43.452;4.934;2023-05-15T04:32:37;17.00;17.00;12.00
69349;PMS5003;64554;43.452;4.934;2023-05-15T04:35:05;19.40;19.40;13.40
69349;PMS5003;64554;43.452;4.934;2023-05-15T04:37:35;21.25;20.25;14.50
69349;PMS5003;64554;43.452;4.934;2023-05-15T04:40:02;17.60;16.80;12.00
69349;PMS5003;64554;43.452;4.934;2023-05-15T04:42:29;19.00;18.00;12.40
69349;PMS5003;64554;43.452;4.934;2023-05-15T04:44:56;18.60;17.60;11.60
69349;PMS5003;64554;43.452;4.934;2023-05-15T04:47:23;14.25;14.25;11.25
69349;PMS5003;64554;43.452;4.934;2023-05-15T04:49:49;16.00;16.00;10.00
69349;PMS5003;64554;43.452;4.934;2023-05-15T04:52:16;17.60;17.60;13.40
69349;PMS5003;64554;43.452;4.934;2023-05-15T04:54:42;24.20;20.60;14.40
69349;PMS5003;64554;43.452;4.934;2023-05-15T04:57:09;19.80;19.80;13.00
69349;PMS5003;64554;43.452;4.934;2023-05-15T04:59:35;16.75;16.75;13.50
69349;PMS5003;64554;43.452;4.934;2023-05-15T05:02:02;19.00;19.00;13.00
69349;PMS5003;64554;43.452;4.934;2023-05-15T05:04:29;18.00;18.00;12.25
69349;PMS5003;64554;43.452;4.934;2023-05-15T05:06:55;16.25;16.25;12.25
69349;PMS5003;64554;43.452;4.934;2023-05-15T05:09:22;17.33;17.00;13.00
69349;PMS5003;64554;43.452;4.934;2023-05-15T05:11:48;20.60;19.60;12.40
69349;PMS5003;64554;43.452;4.934;2023-05-15T05:14:15;17.25;17.25;12.75
69349;PMS5003;64554;43.452;4.934;2023-05-15T05:16:45;28.25;25.50;15.50
69349;PMS5003;64554;43.452;4.934;2023-05-15T05:19:11;20.00;19.00;14.00
69349;PMS5003;64554;43.452;4.934;2023-05-15T05:21:38;28.00;26.00;16.00
69349;PMS5003;64554;43.452;4.934;2023-05-15T05:24:04;20.00;20.00;13.00
69349;PMS5003;64554;43.452;4.934;2023-05-15T05:26:31;22.20;22.20;13.80
69349;PMS5003;64554;43.452;4.934;2023-05-15T05:28:57;20.40;20.40;11.60
69349;PMS5003;64554;43.452;4.934;2023-05-15T05:31:24;19.60;18.60;13.60
69349;PMS5003;64554;43.452;4.934;2023-05-15T05:33:50;22.40;20.40;13.40
69349;PMS5003;64554;43.452;4.934;2023-05-15T05:36:18;24.60;21.60;15.00
69349;PMS5003;64554;43.452;4.934;2023-05-15T05:38:44;20.80;19.60;14.00
69349;PMS5003;64554;43.452;4.934;2023-05-15T05:41:11;20.00;19.50;13.50
69349;PMS5003;64554;43.452;4.934;2023-05-15T05:43:37;21.60;20.60;13.00
69349;PMS5003;64554;43.452;4.934;2023-05-15T05:46:04;21.25;21.25;14.25
69349;PMS5003;64554;43.452;4.934;2023-05-15T05:48:30;17.60;17.60;12.00
69349;PMS5003;64554;43.452;4.934;2023-05-15T05:50:57;24.75;23.75;12.50
69349;PMS5003;64554;43.452;4.934;2023-05-15T05:53:24;20.20;20.20;13.60
69349;PMS5003;64554;43.452;4.934;2023-05-15T05:55:50;17.00;17.00;13.20
69349;PMS5003;64554;43.452;4.934;2023-05-15T05:58:17;20.00;16.60;11.20
69349;PMS5003;64554;43.452;4.934;2023-05-15T06:00:51;21.00;16.50;12.00
69349;PMS5003;64554;43.452;4.934;2023-05-15T06:03:18;17.00;15.50;12.00
69349;PMS5003;64554;43.452;4.934;2023-05-15T06:05:45;18.00;18.00;11.60
69349;PMS5003;64554;43.452;4.934;2023-05-15T06:08:12;18.60;18.60;13.00
69349;PMS5003;64554;43.452;4.934;2023-05-15T06:10:39;17.20;16.80;12.80
69349;PMS5003;64554;43.452;4.934;2023-05-15T06:13:07;17.60;16.40;12.40
69349;PMS5003;64554;43.452;4.934;2023-05-15T06:15:33;18.33;18.33;11.00
69349;PMS5003;64554;43.452;4.934;2023-05-15T06:18:01;19.80;18.00;13.00
69349;PMS5003;64554;43.452;4.934;2023-05-15T06:20:27;16.20;16.20;11.00
69349;PMS5003;64554;43.452;4.934;2023-05-15T06:22:54;18.00;15.80;11.40
69349;PMS5003;64554;43.452;4.934;2023-05-15T06:25:21;18.00;16.75;11.25
69349;PMS5003;64554;43.452;4.934;2023-05-15T06:27:47;18.00;18.00;11.50
69349;PMS5003;64554;43.452;4.934;2023-05-15T06:30:15;18.00;18.00;13.00
69349;PMS5003;64554;43.452;4.934;2023-05-15T06:32:42;16.75;16.50;11.00
69349;PMS5003;64554;43.452;4.934;2023-05-15T06:35:09;14.75;14.00;9.00
69349;PMS5003;64554;43.452;4.934;2023-05-15T06:37:35;17.00;15.00;12.00
69349;PMS5003;64554;43.452;4.934;2023-05-15T06:40:03;17.40;17.00;12.00
69349;PMS5003;64554;43.452;4.934;2023-05-15T06:42:29;21.40;18.40;10.40
69349;PMS5003;64554;43.452;4.934;2023-05-15T06:44:56;16.25;12.75;9.25
69349;PMS5003;64554;43.452;4.934;2023-05-15T06:47:23;16.00;16.00;11.60
69349;PMS5003;64554;43.452;4.934;2023-05-15T06:49:49;22.50;21.50;13.00
69349;PMS5003;64554;43.452;4.934;2023-05-15T06:52:16;14.60;14.60;10.60
69349;PMS5003;64554;43.452;4.934;2023-05-15T06:54:42;16.60;16.60;11.60
69349;PMS5003;64554;43.452;4.934;2023-05-15T06:57:09;20.00;20.00;11.40
69349;PMS5003;64554;43.452;4.934;2023-05-15T06:59:35;21.00;17.40;12.40
69349;PMS5003;64554;43.452;4.934;2023-05-15T07:02:02;19.20;17.60;11.60
69349;PMS5003;64554;43.452;4.934;2023-05-15T07:04:29;19.60;17.80;11.00
69349;PMS5003;64554;43.452;4.934;2023-05-15T07:07:00;17.00;15.00;10.40
69349;PMS5003;64554;43.452;4.934;2023-05-15T07:09:26;19.00;19.00;11.00
69349;PMS5003;64554;43.452;4.934;2023-05-15T07:11:53;18.00;18.00;12.00
69349;PMS5003;64554;43.452;4.934;2023-05-15T07:14:20;22.50;20.50;12.00
69349;PMS5003;64554;43.452;4.934;2023-05-15T07:16:50;22.00;20.25;10.75
69349;PMS5003;64554;43.452;4.934;2023-05-15T07:19:17;15.00;15.00;11.80
69349;PMS5003;64554;43.452;4.934;2023-05-15T07:21:44;15.75;15.75;10.50
69349;PMS5003;64554;43.452;4.934;2023-05-15T07:24:11;23.50;21.50;11.25
69349;PMS5003;64554;43.452;4.934;2023-05-15T07:26:38;19.00;18.75;13.00
69349;PMS5003;64554;43.452;4.934;2023-05-15T07:29:23;22.00;18.20;13.20
69349;PMS5003;64554;43.452;4.934;2023-05-15T07:31:49;20.40;20.40;14.00
69349;PMS5003;64554;43.452;4.934;2023-05-15T07:34:16;18.75;18.75;13.00
69349;PMS5003;64554;43.452;4.934;2023-05-15T07:36:42;23.80;20.40;14.00
69349;PMS5003;64554;43.452;4.934;2023-05-15T07:39:09;20.20;19.20;12.80
69349;PMS5003;64554;43.452;4.934;2023-05-15T07:41:36;21.50;20.50;13.00
69349;PMS5003;64554;43.452;4.934;2023-05-15T07:44:02;22.80;21.80;15.80
69349;PMS5003;64554;43.452;4.934;2023-05-15T07:46:29;21.00;20.00;15.00
69349;PMS5003;64554;43.452;4.934;2023-05-15T07:48:55;25.00;22.50;13.00
69349;PMS5003;64554;43.452;4.934;2023-05-15T07:51:22;19.20;16.00;10.20
69349;PMS5003;64554;43.452;4.934;2023-05-15T07:53:49;18.50;18.50;12.25
69349;PMS5003;64554;43.452;4.934;2023-05-15T07:56:17;21.00;21.00;12.25
69349;PMS5003;64554;43.452;4.934;2023-05-15T07:58:44;21.00;20.00;13.00
69349;PMS5003;64554;43.452;4.934;2023-05-15T08:01:10;21.00;20.00;14.00
69349;PMS5003;64554;43.452;4.934;2023-05-15T08:03:37;20.00;19.00;14.00
69349;PMS5003;64554;43.452;4.934;2023-05-15T08:06:04;18.00;18.00;13.00
69349;PMS5003;64554;43.452;4.934;2023-05-15T08:08:30;15.75;15.75;11.75
69349;PMS5003;64554;43.452;4.934;2023-05-15T08:10:57;21.00;21.00;12.80
69349;PMS5003;64554;43.452;4.934;2023-05-15T08:13:23;23.00;23.00;12.00
69349;PMS5003;64554;43.452;4.934;2023-05-15T08:15:50;19.00;19.00;14.00
69349;PMS5003;64554;43.452;4.934;2023-05-15T08:18:17;20.00;20.00;14.00
69349;PMS5003;64554;43.452;4.934;2023-05-15T08:20:43;17.20;16.80;12.20
69349;PMS5003;64554;43.452;4.934;2023-05-15T08:23:12;18.00;18.00;13.00
69349;PMS5003;64554;43.452;4.934;2023-05-15T08:25:38;20.60;17.80;12.80
69349;PMS5003;64554;43.452;4.934;2023-05-15T08:28:08;18.50;18.50;13.50
69349;PMS5003;64554;43.452;4.934;2023-05-15T08:30:36;22.20;21.00;12.40
69349;PMS5003;64554;43.452;4.934;2023-05-15T08:33:02;20.25;20.25;12.75
69349;PMS5003;64554;43.452;4.934;2023-05-15T08:35:29;27.80;27.40;17.00
69349;PMS5003;64554;43.452;4.934;2023-05-15T08:37:56;16.60;16.60;13.40
69349;PMS5003;64554;43.452;4.934;2023-05-15T08:40:23;23.00;21.50;13.75
69349;PMS5003;64554;43.452;4.934;2023-05-15T08:43:07;21.25;20.50;14.00
69349;PMS5003;64554;43.452;4.934;2023-05-15T08:45:39;27.40;26.40;14.40
69349;PMS5003;64554;43.452;4.934;2023-05-15T08:48:07;27.40;24.60;15.60
69349;PMS5003;64554;43.452;4.934;2023-05-15T08:50:38;20.67;19.00;13.00
69349;PMS5003;64554;43.452;4.934;2023-05-15T08:53:06;19.00;19.00;12.75
69349;PMS5003;64554;43.452;4.934;2023-05-15T08:55:33;23.75;23.75;12.00
69349;PMS5003;64554;43.452;4.934;2023-05-15T08:57:59;18.60;18.60;14.00
69349;PMS5003;64554;43.452;4.934;2023-05-15T09:00:26;21.60;20.20;15.00
69349;PMS5003;64554;43.452;4.934;2023-05-15T09:02:54;22.80;22.80;14.00
69349;PMS5003;64554;43.452;4.934;2023-05-15T09:05:20;19.80;18.80;13.20
69349;PMS5003;64554;43.452;4.934;2023-05-15T09:07:47;19.20;17.00;12.00
69349;PMS5003;64554;43.452;4.934;2023-05-15T09:10:14;21.00;20.00;15.00
69349;PMS5003;64554;43.452;4.934;2023-05-15T09:12:41;21.00;21.00;15.00
69349;PMS5003;64554;43.452;4.934;2023-05-15T09:17:36;25.00;25.00;15.00
69349;PMS5003;64554;43.452;4.934;2023-05-15T09:20:02;21.00;21.00;15.00
69349;PMS5003;64554;43.452;4.934;2023-05-15T09:22:34;20.00;20.00;14.00
69349;PMS5003;64554;43.452;4.934;2023-05-15T09:25:01;18.50;18.00;13.50
69349;PMS5003;64554;43.452;4.934;2023-05-15T09:27:28;19.00;19.00;15.00
69349;PMS5003;64554;43.452;4.934;2023-05-15T09:29:55;19.25;19.25;13.25
69349;PMS5003;64554;43.452;4.934;2023-05-15T09:32:33;23.40;22.00;16.00
69349;PMS5003;64554;43.452;4.934;2023-05-15T09:34:59;20.00;20.00;13.00
69349;PMS5003;64554;43.452;4.934;2023-05-15T09:37:31;21.00;21.00;14.00
69349;PMS5003;64554;43.452;4.934;2023-05-15T09:40:08;22.75;22.75;13.50
69349;PMS5003;64554;43.452;4.934;2023-05-15T09:42:36;21.00;20.00;15.00
69349;PMS5003;64554;43.452;4.934;2023-05-15T09:45:03;22.00;22.00;16.50
69349;PMS5003;64554;43.452;4.934;2023-05-15T09:47:29;29.00;25.75;15.75
69349;PMS5003;64554;43.452;4.934;2023-05-15T09:49:57;25.50;23.75;15.00
69349;PMS5003;64554;43.452;4.934;2023-05-15T09:52:23;17.75;17.75;13.75
69349;PMS5003;64554;43.452;4.934;2023-05-15T09:54:50;22.60;22.60;15.60
69349;PMS5003;64554;43.452;4.934;2023-05-15T09:57:20;20.00;20.00;14.40
69349;PMS5003;64554;43.452;4.934;2023-05-15T09:59:47;23.75;23.25;15.00
69349;PMS5003;64554;43.452;4.934;2023-05-15T10:02:28;27.00;26.75;16.00
69349;PMS5003;64554;43.452;4.934;2023-05-15T10:05:01;20.80;20.60;13.80
69349;PMS5003;64554;43.452;4.934;2023-05-15T10:07:30;21.00;21.00;14.25
69349;PMS5003;64554;43.452;4.934;2023-05-15T10:09:57;23.00;21.00;14.00
69349;PMS5003;64554;43.452;4.934;2023-05-15T10:12:24;18.00;18.00;12.00
69349;PMS5003;64554;43.452;4.934;2023-05-15T10:14:55;19.60;19.20;14.00
69349;PMS5003;64554;43.452;4.934;2023-05-15T10:17:22;22.60;20.00;14.00
69349;PMS5003;64554;43.452;4.934;2023-05-15T10:19:49;23.00;21.50;15.75
69349;PMS5003;64554;43.452;4.934;2023-05-15T10:22:24;22.00;20.40;14.40
69349;PMS5003;64554;43.452;4.934;2023-05-15T10:25:02;17.00;17.00;13.80
69349;PMS5003;64554;43.452;4.934;2023-05-15T10:27:33;20.00;19.00;14.00
69349;PMS5003;64554;43.452;4.934;2023-05-15T10:30:02;22.00;19.00;14.00
69349;PMS5003;64554;43.452;4.934;2023-05-15T10:32:29;18.00;18.00;13.00
69349;PMS5003;64554;43.452;4.934;2023-05-15T10:34:56;20.00;20.00;12.00
69349;PMS5003;64554;43.452;4.934;2023-05-15T10:37:22;19.00;19.00;13.80
69349;PMS5003;64554;43.452;4.934;2023-05-15T10:39:49;18.60;18.60;14.00
69349;PMS5003;64554;43.452;4.934;2023-05-15T10:42:18;21.80;20.80;14.80
69349;PMS5003;64554;43.452;4.934;2023-05-15T10:44:45;23.33;22.33;13.33
69349;PMS5003;64554;43.452;4.934;2023-05-15T10:47:12;21.00;19.20;14.00
69349;PMS5003;64554;43.452;4.934;2023-05-15T10:49:39;27.00;25.00;16.75
69349;PMS5003;64554;43.452;4.934;2023-05-15T10:52:05;27.75;26.25;14.50
69349;PMS5003;64554;43.452;4.934;2023-05-15T10:54:32;21.75;20.75;13.00
69349;PMS5003;64554;43.452;4.934;2023-05-15T10:56:58;18.40;18.40;12.60
69349;PMS5003;64554;43.452;4.934;2023-05-15T10:59:31;25.00;22.40;13.20
69349;PMS5003;64554;43.452;4.934;2023-05-15T11:02:17;23.40;21.40;15.80
69349;PMS5003;64554;43.452;4.934;2023-05-15T11:04:44;18.00;18.00;13.40
69349;PMS5003;64554;43.452;4.934;2023-05-15T11:07:12;18.80;18.80;13.00
69349;PMS5003;64554;43.452;4.934;2023-05-15T11:09:39;18.20;18.20;10.60
69349;PMS5003;64554;43.452;4.934;2023-05-15T11:12:11;12.40;12.40;10.60
69349;PMS5003;64554;43.452;4.934;2023-05-15T11:14:40;21.25;20.75;12.75
69349;PMS5003;64554;43.452;4.934;2023-05-15T11:17:10;17.40;17.40;13.60
69349;PMS5003;64554;43.452;4.934;2023-05-15T11:22:17;21.00;18.25;13.75
69349;PMS5003;64554;43.452;4.934;2023-05-15T11:24:48;20.60;19.60;12.60
69349;PMS5003;64554;43.452;4.934;2023-05-15T11:27:20;17.00;15.00;11.00
69349;PMS5003;64554;43.452;4.934;2023-05-15T11:35:21;20.00;19.00;12.00
69349;PMS5003;64554;43.452;4.934;2023-05-15T11:37:50;16.00;14.50;10.00
69349;PMS5003;64554;43.452;4.934;2023-05-15T11:40:21;16.80;13.80;10.40
69349;PMS5003;64554;43.452;4.934;2023-05-15T11:45:24;17.00;17.00;13.00
69349;PMS5003;64554;43.452;4.934;2023-05-15T11:47:53;16.60;16.60;12.60
69349;PMS5003;64554;43.452;4.934;2023-05-15T11:50:19;21.40;20.40;15.00
69349;PMS5003;64554;43.452;4.934;2023-05-15T11:52:47;15.00;14.50;11.00
69349;PMS5003;64554;43.452;4.934;2023-05-15T11:55:14;20.40;19.40;11.40
69349;PMS5003;64554;43.452;4.934;2023-05-15T11:57:41;17.00;17.00;12.00
69349;PMS5003;64554;43.452;4.934;2023-05-15T12:00:08;18.40;17.00;12.00
69349;PMS5003;64554;43.452;4.934;2023-05-15T12:02:35;16.00;16.00;12.00
69349;PMS5003;64554;43.452;4.934;2023-05-15T12:05:02;14.75;14.75;11.75
69349;PMS5003;64554;43.452;4.934;2023-05-15T12:07:29;18.00;17.00;12.75
69349;PMS5003;64554;43.452;4.934;2023-05-15T12:09:55;18.00;17.00;11.00
69349;PMS5003;64554;43.452;4.934;2023-05-15T12:12:22;20.00;18.40;13.00
69349;PMS5003;64554;43.452;4.934;2023-05-15T12:14:52;21.00;18.25;13.50
69349;PMS5003;64554;43.452;4.934;2023-05-15T12:17:22;15.50;15.50;10.00
69349;PMS5003;64554;43.452;4.934;2023-05-15T12:19:49;17.40;17.40;13.00
69349;PMS5003;64554;43.452;4.934;2023-05-15T12:22:16;17.75;16.75;12.00
69349;PMS5003;64554;43.452;4.934;2023-05-15T12:24:44;22.00;19.00;11.00
69349;PMS5003;64554;43.452;4.934;2023-05-15T12:27:10;19.50;17.25;12.00
69349;PMS5003;64554;43.452;4.934;2023-05-15T12:29:38;19.60;16.60;12.20
69349;PMS5003;64554;43.452;4.934;2023-05-15T12:32:05;17.00;15.60;12.60
69349;PMS5003;64554;43.452;4.934;2023-05-15T12:34:32;17.00;16.25;12.25
69349;PMS5003;64554;43.452;4.934;2023-05-15T12:37:00;16.00;16.00;11.25
69349;PMS5003;64554;43.452;4.934;2023-05-15T12:39:26;15.25;14.25;10.50
69349;PMS5003;64554;43.452;4.934;2023-05-15T12:41:56;16.00;16.00;11.00
69349;PMS5003;64554;43.452;4.934;2023-05-15T12:44:22;15.00;14.00;11.00
69349;PMS5003;64554;43.452;4.934;2023-05-15T12:46:52;19.00;16.00;12.00
69349;PMS5003;64554;43.452;4.934;2023-05-15T12:49:22;17.67;17.67;12.67
69349;PMS5003;64554;43.452;4.934;2023-05-15T12:51:48;14.20;14.20;10.60
69349;PMS5003;64554;43.452;4.934;2023-05-15T12:54:15;15.25;15.25;10.50
69349;PMS5003;64554;43.452;4.934;2023-05-15T12:56:43;14.80;13.60;9.80
69349;PMS5003;64554;43.452;4.934;2023-05-15T12:59:12;16.25;15.00;11.00
69349;PMS5003;64554;43.452;4.934;2023-05-15T13:01:39;14.00;14.00;11.00
69349;PMS5003;64554;43.452;4.934;2023-05-15T13:04:07;15.00;15.00;11.00
69349;PMS5003;64554;43.452;4.934;2023-05-15T13:06:36;15.00;13.00;10.00
69349;PMS5003;64554;43.452;4.934;2023-05-15T13:09:12;15.00;14.00;11.00
69349;PMS5003;64554;43.452;4.934;2023-05-15T13:11:42;16.40;16.40;12.00
69349;PMS5003;64554;43.452;4.934;2023-05-15T13:14:08;16.60;15.00;13.00
69349;PMS5003;64554;43.452;4.934;2023-05-15T13:16:43;17.33;16.33;10.33
69349;PMS5003;64554;43.452;4.934;2023-05-15T13:19:10;14.50;14.50;11.50
69349;PMS5003;64554;43.452;4.934;2023-05-15T13:21:36;15.40;15.40;11.40
69349;PMS5003;64554;43.452;4.934;2023-05-15T13:24:03;17.00;17.00;12.75
69349;PMS5003;64554;43.452;4.934;2023-05-15T13:26:30;17.00;15.25;9.25
69349;PMS5003;64554;43.452;4.934;2023-05-15T13:28:56;15.25;15.25;10.50
69349;PMS5003;64554;43.452;4.934;2023-05-15T13:31:23;17.00;15.00;9.33
69349;PMS5003;64554;43.452;4.934;2023-05-15T13:33:50;13.60;11.00;9.00
69349;PMS5003;64554;43.452;4.934;2023-05-15T13:36:16;14.00;14.00;9.00
69349;PMS5003;64554;43.452;4.934;2023-05-15T13:38:43;17.40;16.00;10.00
69349;PMS5003;64554;43.452;4.934;2023-05-15T13:41:09;15.60;15.60;11.60
69349;PMS5003;64554;43.452;4.934;2023-05-15T13:43:36;15.50;15.50;10.00
69349;PMS5003;64554;43.452;4.934;2023-05-15T13:46:03;14.80;14.00;10.00
69349;PMS5003;64554;43.452;4.934;2023-05-15T13:48:29;15.25;13.75;10.25
69349;PMS5003;64554;43.452;4.934;2023-05-15T13:50:56;13.60;13.60;10.00
69349;PMS5003;64554;43.452;4.934;2023-05-15T13:53:23;16.00;14.00;11.00
69349;PMS5003;64554;43.452;4.934;2023-05-15T13:55:49;19.00;17.00;11.00
69349;PMS5003;64554;43.452;4.934;2023-05-15T13:58:15;13.00;13.00;9.75
69349;PMS5003;64554;43.452;4.934;2023-05-15T14:00:42;14.20;13.00;10.20
69349;PMS5003;64554;43.452;4.934;2023-05-15T14:03:09;11.00;11.00;8.50
69349;PMS5003;64554;43.452;4.934;2023-05-15T14:05:40;13.00;13.00;9.00
69349;PMS5003;64554;43.452;4.934;2023-05-15T14:08:07;10.40;10.40;8.00
69349;PMS5003;64554;43.452;4.934;2023-05-15T14:10:34;12.40;11.80;7.80
69349;PMS5003;64554;43.452;4.934;2023-05-15T14:13:01;12.00;12.00;8.00
69349;PMS5003;64554;43.452;4.934;2023-05-15T14:15:27;12.00;12.00;9.00
69349;PMS5003;64554;43.452;4.934;2023-05-15T14:17:54;11.00;11.00;7.80
69349;PMS5003;64554;43.452;4.934;2023-05-15T14:20:21;12.50;12.50;8.00
69349;PMS5003;64554;43.452;4.934;2023-05-15T14:22:47;12.00;12.00;8.50
69349;PMS5003;64554;43.452;4.934;2023-05-15T14:25:14;12.40;11.40;8.00